createdAt,value
2023-04-21T13:48:30.480Z,1011.75
2023-04-21T13:50:30.451Z,1011.66
2023-04-21T13:52:30.467Z,1011.66
2023-04-21T13:54:30.691Z,1011.65
2023-04-21T13:56:30.469Z,1011.62
2023-04-21T13:58:30.455Z,1011.62
2023-04-21T14:00:30.464Z,1011.60
2023-04-21T14:02:30.633Z,1011.60
2023-04-21T14:04:30.542Z,1011.60
2023-04-21T14:06:30.466Z,1011.56
2023-04-21T14:09:30.592Z,1011.53
2023-04-21T14:11:30.492Z,1011.52
2023-04-21T14:13:37.343Z,1011.43
2023-04-21T14:15:30.501Z,1011.44
2023-04-21T14:17:30.515Z,1011.44
2023-04-21T14:19:30.742Z,1011.36
2023-04-21T14:21:30.467Z,1011.31
2023-04-21T14:23:30.554Z,1011.33
2023-04-21T14:25:30.468Z,1011.33
2023-04-21T14:27:30.475Z,1011.30
2023-04-21T14:29:30.540Z,1011.22
2023-04-21T14:31:30.568Z,1011.19
2023-04-21T14:33:30.507Z,1011.18
2023-04-21T14:35:30.486Z,1011.18
2023-04-21T14:37:30.581Z,1011.17
2023-04-21T14:39:30.515Z,1011.16
2023-04-21T14:41:30.532Z,1011.15
2023-04-21T14:43:30.488Z,1011.15
2023-04-21T14:45:30.559Z,1011.15
2023-04-21T14:47:30.553Z,1011.15
2023-04-21T14:49:30.708Z,1011.15
2023-04-21T14:51:31.532Z,1011.13
2023-04-21T14:53:30.541Z,1011.13
2023-04-21T14:55:30.640Z,1011.08
2023-04-21T14:57:30.517Z,1011.07
2023-04-21T14:59:30.537Z,1011.08
2023-04-21T15:01:30.642Z,1011.08
2023-04-21T15:03:30.606Z,1011.08
2023-04-21T15:05:30.540Z,1011.10
2023-04-21T15:07:30.534Z,1011.15
2023-04-21T15:09:30.555Z,1011.22
2023-04-21T15:11:30.550Z,1011.19
2023-04-21T15:13:30.582Z,1011.19
2023-04-21T15:15:30.529Z,1011.22
2023-04-21T15:17:30.532Z,1011.20
2023-04-21T15:19:30.513Z,1011.19
2023-04-21T15:21:30.522Z,1011.19
2023-04-21T15:23:30.828Z,1011.21
2023-04-21T15:25:30.535Z,1011.21
2023-04-21T15:27:30.604Z,1011.13
2023-04-21T15:29:30.569Z,1011.19
2023-04-21T15:31:30.545Z,1011.19
2023-04-21T15:33:30.554Z,1011.17
2023-04-21T15:35:30.523Z,1011.17
2023-04-21T15:37:30.606Z,1011.18
2023-04-21T15:39:30.565Z,1011.23
2023-04-21T15:41:30.540Z,1011.23
2023-04-21T15:43:30.573Z,1011.21
2023-04-21T15:45:30.548Z,1011.21
2023-04-21T15:47:30.628Z,1011.18
2023-04-21T15:49:30.567Z,1011.18
2023-04-21T15:51:30.575Z,1011.15
2023-04-21T15:53:30.591Z,1011.20
2023-04-21T15:55:30.709Z,1011.15
2023-04-21T15:57:30.584Z,1011.16
2023-04-21T15:59:30.764Z,1011.16
2023-04-21T16:01:30.662Z,1011.17
2023-04-21T16:03:30.754Z,1011.14
2023-04-21T16:05:30.778Z,1011.14
2023-04-21T16:07:30.581Z,1011.06
2023-04-21T16:09:30.605Z,1011.06
2023-04-21T16:11:30.601Z,1011.02
2023-04-21T16:13:30.578Z,1010.99
2023-04-21T16:15:30.736Z,1010.99
2023-04-21T16:17:30.671Z,1010.98
2023-04-21T16:19:30.700Z,1010.98
2023-04-21T16:21:30.606Z,1010.96
2023-04-21T16:23:30.588Z,1010.96
2023-04-21T16:25:30.806Z,1010.92
2023-04-21T16:27:30.636Z,1010.92
2023-04-21T16:29:30.655Z,1010.90
2023-04-21T16:31:30.665Z,1010.88
2023-04-21T16:33:30.590Z,1010.94
2023-04-21T16:35:30.647Z,1010.94
2023-04-21T16:37:30.671Z,1010.94
2023-04-21T16:39:30.620Z,1010.93
2023-04-21T16:41:30.707Z,1010.91
2023-04-21T16:43:30.658Z,1010.90
2023-04-21T16:45:30.617Z,1010.90
2023-04-21T16:47:30.659Z,1010.90
2023-04-21T16:49:30.580Z,1010.84
2023-04-21T16:51:30.578Z,1010.85
2023-04-21T16:53:30.614Z,1010.88
2023-04-21T16:55:30.620Z,1010.88
2023-04-21T16:57:30.598Z,1010.82
2023-04-21T16:59:31.538Z,1010.83
2023-04-21T17:01:30.664Z,1010.83
2023-04-21T17:03:30.796Z,1010.82
2023-04-21T17:05:30.661Z,1010.82
2023-04-21T17:07:30.664Z,1010.78
2023-04-21T17:09:30.668Z,1010.76
2023-04-21T17:11:30.687Z,1010.74
2023-04-21T17:13:30.700Z,1010.76
2023-04-21T17:15:30.739Z,1010.76
2023-04-21T17:17:30.682Z,1010.77
2023-04-21T17:19:30.685Z,1010.79
2023-04-21T17:22:16.972Z,1010.84
2023-04-21T17:24:17.183Z,1010.84
2023-04-21T17:26:16.552Z,1010.88
2023-04-21T17:28:16.359Z,1010.88
2023-04-21T17:30:16.546Z,1010.99
2023-04-21T17:32:16.981Z,1011.00
2023-04-21T17:34:17.396Z,1010.98
2023-04-21T17:36:16.416Z,1010.98
2023-04-21T17:38:16.722Z,1010.99
2023-04-21T17:40:16.900Z,1010.97
2023-04-21T17:42:20.048Z,1010.95
2023-04-21T17:44:16.365Z,1010.95
2023-04-21T17:46:16.448Z,1010.97
2023-04-21T17:48:16.477Z,1010.96
2023-04-21T17:50:16.434Z,1010.92
2023-04-21T17:52:17.092Z,1010.92
2023-04-21T17:54:16.531Z,1010.97
2023-04-21T17:56:16.452Z,1011.03
2023-04-21T17:58:16.776Z,1011.05
2023-04-21T18:00:17.406Z,1011.03
2023-04-21T18:02:16.665Z,1011.03
2023-04-21T18:04:16.653Z,1011.05
2023-04-21T18:06:16.581Z,1011.08
2023-04-21T18:08:17.546Z,1011.08
2023-04-21T18:10:16.504Z,1011.16
2023-04-21T18:12:18.581Z,1011.16
2023-04-21T18:14:16.416Z,1011.17
2023-04-21T18:16:16.414Z,1011.15
2023-04-21T18:18:16.425Z,1011.13
2023-04-21T18:20:16.390Z,1011.10
2023-04-21T18:22:16.575Z,1011.10
2023-04-21T18:24:17.968Z,1011.09
2023-04-21T18:26:28.377Z,1011.09
2023-04-21T18:28:28.526Z,1011.12
2023-04-21T18:30:22.106Z,1011.13
2023-04-21T18:32:29.143Z,1011.16
2023-04-21T18:34:16.472Z,1011.16
2023-04-21T18:36:16.370Z,1011.19
2023-04-21T18:38:16.349Z,1011.21
2023-04-21T18:40:16.356Z,1011.21
2023-04-21T18:42:16.359Z,1011.27
2023-04-21T18:44:16.372Z,1011.34
2023-04-21T18:46:20.526Z,1011.35
2023-04-21T18:48:16.401Z,1011.35
2023-04-21T18:50:16.438Z,1011.35
2023-04-21T18:52:16.408Z,1011.42
2023-04-21T18:54:16.510Z,1011.46
2023-04-21T18:56:16.628Z,1011.45
2023-04-21T18:58:16.454Z,1011.45
2023-04-21T19:00:16.444Z,1011.47
2023-04-21T19:02:16.683Z,1011.52
2023-04-21T19:04:16.582Z,1011.61
2023-04-21T19:06:17.576Z,1011.68
2023-04-21T19:08:18.264Z,1011.68
2023-04-21T19:10:16.453Z,1011.67
2023-04-21T19:12:16.417Z,1011.65
2023-04-21T19:14:16.454Z,1011.61
2023-04-21T19:16:16.808Z,1011.59
2023-04-21T19:18:16.377Z,1011.59
2023-04-21T19:20:16.617Z,1011.55
2023-04-21T19:22:16.433Z,1011.60
2023-04-21T19:24:16.378Z,1011.59
2023-04-21T19:26:16.503Z,1011.59
2023-04-21T19:28:16.503Z,1011.60
2023-04-21T19:30:16.407Z,1011.60
2023-04-21T19:32:16.465Z,1011.65
2023-04-21T19:34:18.613Z,1011.64
2023-04-21T19:36:16.418Z,1011.64
2023-04-21T19:38:16.564Z,1011.67
2023-04-21T19:40:16.491Z,1011.67
2023-04-21T19:42:20.639Z,1011.70
2023-04-21T19:44:16.903Z,1011.70
2023-04-21T19:46:16.562Z,1011.70
2023-04-21T19:48:16.601Z,1011.71
2023-04-21T19:50:16.428Z,1011.68
2023-04-21T19:54:16.452Z,1011.71
2023-04-21T19:56:17.348Z,1011.75
2023-04-21T19:58:28.564Z,1011.75
2023-04-21T20:00:16.544Z,1011.69
2023-04-21T20:04:16.576Z,1011.69
2023-04-21T20:08:16.574Z,1011.69
2023-04-21T20:10:16.528Z,1011.69
2023-04-21T20:14:16.416Z,1011.68
2023-04-21T20:16:27.930Z,1011.66
2023-04-21T20:18:28.043Z,1011.66
2023-04-21T20:20:27.966Z,1011.66
2023-04-21T20:22:27.991Z,1011.66
2023-04-21T20:24:27.886Z,1011.67
2023-04-21T20:26:27.857Z,1011.67
2023-04-21T20:28:27.934Z,1011.69
2023-04-21T20:30:27.935Z,1011.67
2023-04-21T20:32:27.889Z,1011.65
2023-04-21T20:34:27.962Z,1011.65
2023-04-21T20:36:27.881Z,1011.65
2023-04-21T20:38:27.889Z,1011.66
2023-04-21T20:40:27.890Z,1011.66
2023-04-21T20:42:29.288Z,1011.65
2023-04-21T20:44:27.930Z,1011.65
2023-04-21T20:46:27.889Z,1011.65
2023-04-21T20:48:28.173Z,1011.61
2023-04-21T20:50:27.905Z,1011.61
2023-04-21T20:52:28.019Z,1011.65
2023-04-21T20:54:28.220Z,1011.65
2023-04-21T20:56:28.757Z,1011.68
2023-04-21T20:58:27.930Z,1011.70
2023-04-21T21:00:28.149Z,1011.63
2023-04-21T21:02:28.102Z,1011.54
2023-04-21T21:04:29.494Z,1011.54
2023-04-21T21:06:27.921Z,1011.54
2023-04-21T21:08:28.051Z,1011.55
2023-04-21T21:10:27.925Z,1011.50
2023-04-21T21:12:28.040Z,1011.50
2023-04-21T21:14:27.958Z,1011.50
2023-04-21T21:16:28.068Z,1011.51
2023-04-21T21:18:27.919Z,1011.49
2023-04-21T21:20:28.341Z,1011.55
2023-04-21T21:22:28.130Z,1011.51
2023-04-21T21:24:27.932Z,1011.51
2023-04-21T21:26:27.972Z,1011.55
2023-04-21T21:28:28.680Z,1011.55
2023-04-21T21:30:31.781Z,1011.55
2023-04-21T21:32:27.938Z,1011.55
2023-04-21T21:34:33.608Z,1011.64
2023-04-21T21:36:27.959Z,1011.63
2023-04-21T21:39:28.026Z,1011.64
2023-04-21T21:41:28.419Z,1011.61
2023-04-21T21:43:28.031Z,1011.61
2023-04-21T21:45:27.941Z,1011.61
2023-04-21T21:47:28.070Z,1011.61
2023-04-21T21:49:27.918Z,1011.57
2023-04-21T21:51:30.174Z,1011.53
2023-04-21T21:53:27.973Z,1011.50
2023-04-21T21:55:32.982Z,1011.50
2023-04-21T21:57:27.936Z,1011.45
2023-04-21T21:59:28.060Z,1011.44
2023-04-21T22:01:30.785Z,1011.44
2023-04-21T22:03:28.235Z,1011.39
2023-04-21T22:05:28.114Z,1011.39
2023-04-21T22:07:28.345Z,1011.42
2023-04-21T22:09:27.941Z,1011.43
2023-04-21T22:11:28.196Z,1011.43
2023-04-21T22:13:28.002Z,1011.44
2023-04-21T22:15:30.853Z,1011.44
2023-04-21T22:17:28.169Z,1011.45
2023-04-21T22:19:27.928Z,1011.44
2023-04-21T22:21:27.940Z,1011.44
2023-04-21T22:23:27.951Z,1011.45
2023-04-21T22:25:27.960Z,1011.45
2023-04-21T22:27:28.186Z,1011.45
2023-04-21T22:29:27.990Z,1011.51
2023-04-21T22:31:27.984Z,1011.51
2023-04-21T22:33:27.983Z,1011.51
2023-04-21T22:35:27.922Z,1011.54
2023-04-21T22:37:29.836Z,1011.59
2023-04-21T22:39:28.049Z,1011.59
2023-04-21T22:41:27.990Z,1011.65
2023-04-21T22:43:28.444Z,1011.65
2023-04-21T22:45:28.109Z,1011.68
2023-04-21T22:47:30.031Z,1011.69
2023-04-21T22:49:30.281Z,1011.69
2023-04-21T22:51:28.051Z,1011.69
2023-04-21T22:53:27.945Z,1011.69
2023-04-21T22:55:32.914Z,1011.69
2023-04-21T22:57:32.014Z,1011.73
2023-04-21T22:59:28.588Z,1011.68
2023-04-21T23:01:28.152Z,1011.68
2023-04-21T23:03:28.231Z,1011.72
2023-04-21T23:05:27.957Z,1011.73
2023-04-21T23:07:28.003Z,1011.74
2023-04-21T23:09:28.236Z,1011.74
2023-04-21T23:11:28.002Z,1011.74
2023-04-21T23:13:28.086Z,1011.72
2023-04-21T23:15:28.136Z,1011.73
2023-04-21T23:17:28.080Z,1011.72
2023-04-21T23:19:28.110Z,1011.69
2023-04-21T23:21:28.036Z,1011.69
2023-04-21T23:23:27.974Z,1011.72
2023-04-21T23:25:28.078Z,1011.73
2023-04-21T23:27:27.972Z,1011.67
2023-04-21T23:29:28.045Z,1011.67
2023-04-21T23:31:28.097Z,1011.65
2023-04-21T23:33:28.032Z,1011.65
2023-04-21T23:35:28.017Z,1011.62
2023-04-21T23:37:28.301Z,1011.59
2023-04-21T23:39:27.998Z,1011.59
2023-04-21T23:41:28.021Z,1011.55
2023-04-21T23:43:27.978Z,1011.54
2023-04-21T23:45:28.117Z,1011.52
2023-04-21T23:47:28.124Z,1011.54
2023-04-21T23:49:31.741Z,1011.54
2023-04-21T23:51:28.093Z,1011.50
2023-04-21T23:53:28.070Z,1011.49
2023-04-21T23:55:28.107Z,1011.49
2023-04-21T23:57:28.048Z,1011.49
2023-04-21T23:59:28.097Z,1011.45
